Time;durP1;ratioP1;P1;durP2;ratioP2;P2;SDS_P1;SDS_P2;PMS_P1;PMS_P2;Temp;Humidity;BMP_temperature;BMP_pressure;BME280_temperature;BME280_humidity;BME280_pressure;Samples;Min_cycle;Max_cycle;Signal;HPM_P1;HPM_P2
2023/02/12 00:01:38;;;;;;;;;14.00;14.00;;;;;-147.17;100.00;-15917.19;5023849;28;51138;-59
2023/02/12 00:04:03;;;;;;;;;15.00;13.50;;;;;-147.17;100.00;-15917.19;5031943;28;51035;-58
2023/02/12 00:06:29;;;;;;;;;14.00;13.00;;;;;-147.17;100.00;-15917.19;5022244;28;51066;-59
2023/02/12 00:08:56;;;;;;;;;19.75;18.50;;;;;-147.17;100.00;-15917.19;5011941;28;51100;-58
2023/02/12 00:11:28;;;;;;;;;15.75;14.00;;;;;-147.17;100.00;-15917.19;5019115;28;51107;-60
2023/02/12 00:13:55;;;;;;;;;14.00;12.75;;;;;-147.17;100.00;-15917.19;5016693;28;51018;-60
2023/02/12 00:16:24;;;;;;;;;17.50;16.50;;;;;-147.17;100.00;-15917.19;5020980;28;51327;-59
2023/02/12 00:18:53;;;;;;;;;12.50;10.25;;;;;-147.17;100.00;-15917.19;5013416;28;51811;-59
2023/02/12 00:21:19;;;;;;;;;16.50;15.00;;;;;-147.17;100.00;-15917.19;5012712;28;51204;-59
2023/02/12 00:23:45;;;;;;;;;17.75;15.75;;;;;-147.17;100.00;-15917.19;5029866;28;51244;-58
2023/02/12 00:26:14;;;;;;;;;21.25;19.25;;;;;-147.17;100.00;-15917.19;5016973;28;51391;-60
2023/02/12 00:28:40;;;;;;;;;21.25;19.00;;;;;-147.17;100.00;-15917.19;5014608;28;51087;-58
2023/02/12 00:31:15;;;;;;;;;18.75;16.25;;;;;-147.17;100.00;-15917.19;5013017;28;51126;-59
2023/02/12 00:33:40;;;;;;;;;21.75;20.75;;;;;-147.17;100.00;-15917.19;5015432;28;51065;-59
2023/02/12 00:36:07;;;;;;;;;29.50;26.75;;;;;-147.17;100.00;-15917.19;5030169;28;50927;-58
2023/02/12 00:38:33;;;;;;;;;14.75;14.00;;;;;-147.17;100.00;-15917.19;5014358;28;52797;-59
2023/02/12 00:40:58;;;;;;;;;22.75;19.25;;;;;-147.17;100.00;-15917.19;5004740;28;51198;-59
2023/02/12 00:43:23;;;;;;;;;18.75;18.75;;;;;-147.17;100.00;-15917.19;5016746;28;51201;-60
2023/02/12 00:45:52;;;;;;;;;23.75;18.50;;;;;-147.17;100.00;-15917.19;5019957;28;51070;-59
2023/02/12 00:48:17;;;;;;;;;16.25;16.25;;;;;-147.17;100.00;-15917.19;5024738;28;50946;-59
2023/02/12 00:50:44;;;;;;;;;23.75;22.25;;;;;-147.17;100.00;-15917.19;5024851;28;51034;-59
2023/02/12 00:53:10;;;;;;;;;21.75;20.75;;;;;-147.17;100.00;-15917.19;5022563;28;50941;-58
2023/02/12 00:55:36;;;;;;;;;22.00;21.25;;;;;-147.17;100.00;-15917.19;5014234;28;51791;-58
2023/02/12 00:58:01;;;;;;;;;24.75;22.75;;;;;-147.17;100.00;-15917.19;5007631;28;51961;-59
2023/02/12 01:00:26;;;;;;;;;20.25;18.75;;;;;-147.17;100.00;-15917.19;5023569;28;51142;-58
2023/02/12 01:02:52;;;;;;;;;25.50;25.25;;;;;-147.17;100.00;-15917.19;5014674;28;51114;-58
2023/02/12 01:05:18;;;;;;;;;19.50;17.00;;;;;-147.17;100.00;-15917.19;5020630;28;51399;-59
2023/02/12 01:07:49;;;;;;;;;25.75;25.50;;;;;-147.17;100.00;-15917.19;5010823;28;53332;-59
2023/02/12 01:10:15;;;;;;;;;15.00;14.00;;;;;-147.17;100.00;-15917.19;5030669;28;50897;-59
2023/02/12 01:12:40;;;;;;;;;19.50;18.75;;;;;-147.17;100.00;-15917.19;5018381;28;55395;-58
2023/02/12 01:15:06;;;;;;;;;21.00;19.25;;;;;-147.17;100.00;-15917.19;5022986;28;51129;-62
2023/02/12 01:17:31;;;;;;;;;24.50;20.25;;;;;-147.17;100.00;-15917.19;5018556;28;51787;-59
2023/02/12 01:19:57;;;;;;;;;28.25;26.00;;;;;-147.17;100.00;-15917.19;5016358;28;51623;-58
2023/02/12 01:22:23;;;;;;;;;17.75;14.00;;;;;-147.17;100.00;-15917.19;5018320;28;51098;-59
2023/02/12 01:24:49;;;;;;;;;26.50;21.25;;;;;-147.17;100.00;-15917.19;5014174;28;51102;-59
2023/02/12 01:27:15;;;;;;;;;24.50;23.50;;;;;-147.17;100.00;-15917.19;5016739;28;51097;-59
2023/02/12 01:29:43;;;;;;;;;24.25;19.50;;;;;-147.17;100.00;-15917.19;5031117;28;51184;-59
2023/02/12 01:32:09;;;;;;;;;14.25;12.75;;;;;-147.17;100.00;-15917.19;5023316;28;51159;-59
2023/02/12 01:34:34;;;;;;;;;13.75;12.75;;;;;-147.17;100.00;-15917.19;5033761;28;50953;-59
2023/02/12 01:37:00;;;;;;;;;16.00;14.75;;;;;-147.17;100.00;-15917.19;5032202;28;51707;-59
2023/02/12 01:39:25;;;;;;;;;18.50;15.00;;;;;-147.17;100.00;-15917.19;5033381;28;51097;-60
2023/02/12 01:41:50;;;;;;;;;16.25;15.25;;;;;-147.17;100.00;-15917.19;5019701;28;50991;-59
2023/02/12 01:44:24;;;;;;;;;16.25;15.50;;;;;-147.17;100.00;-15917.19;5021476;28;51216;-58
2023/02/12 01:47:01;;;;;;;;;18.50;17.75;;;;;-147.17;100.00;-15917.19;5027246;28;52270;-59
2023/02/12 01:49:40;;;;;;;;;15.75;14.50;;;;;-147.17;100.00;-15917.19;5015916;28;51315;-59
2023/02/12 01:52:26;;;;;;;;;16.25;16.25;;;;;-147.17;100.00;-15917.19;5023538;28;51142;-59
2023/02/12 01:54:57;;;;;;;;;15.50;13.50;;;;;-147.17;100.00;-15917.19;5018076;28;51129;-59
2023/02/12 01:57:25;;;;;;;;;10.25;10.25;;;;;-147.17;100.00;-15917.19;5014887;28;51870;-58
2023/02/12 01:59:55;;;;;;;;;6.50;6.50;;;;;-147.17;100.00;-15917.19;5028472;28;51030;-58
2023/02/12 02:02:20;;;;;;;;;10.00;8.50;;;;;-147.17;100.00;-15917.19;5019809;28;50872;-58
2023/02/12 02:04:53;;;;;;;;;8.75;8.25;;;;;-147.17;100.00;-15917.19;5017486;28;51368;-60
2023/02/12 02:07:18;;;;;;;;;6.50;5.75;;;;;-147.17;100.00;-15917.19;5013903;28;51848;-59
2023/02/12 02:09:43;;;;;;;;;9.00;9.00;;;;;-147.17;100.00;-15917.19;5013872;28;51098;-59
2023/02/12 02:14:56;;;;;;;;;7.50;6.50;;;;;-147.17;100.00;-15917.19;5013450;28;51129;-59
2023/02/12 02:17:38;;;;;;;;;5.25;5.25;;;;;-147.17;100.00;-15917.19;5014776;28;51986;-60
2023/02/12 02:20:15;;;;;;;;;6.00;5.75;;;;;-147.17;100.00;-15917.19;5014243;28;51071;-60
2023/02/12 02:22:59;;;;;;;;;3.25;2.25;;;;;-147.17;100.00;-15917.19;5019234;28;50984;-59
2023/02/12 02:25:33;;;;;;;;;3.00;3.00;;;;;-147.17;100.00;-15917.19;5028891;28;51037;-59
2023/02/12 02:28:30;;;;;;;;;7.50;6.25;;;;;-147.17;100.00;-15917.19;5019868;28;52283;-60
2023/02/12 02:31:22;;;;;;;;;4.00;3.75;;;;;-147.17;100.00;-15917.19;5026499;28;51059;-59
2023/02/12 02:33:58;;;;;;;;;2.50;2.50;;;;;-147.17;100.00;-15917.19;5013433;28;51196;-60
2023/02/12 02:36:43;;;;;;;;;3.25;3.00;;;;;-147.17;100.00;-15917.19;5008379;28;51128;-59
2023/02/12 02:39:25;;;;;;;;;3.75;3.75;;;;;-147.17;100.00;-15917.19;5021622;28;51912;-63
2023/02/12 02:41:57;;;;;;;;;1.50;1.50;;;;;-147.17;100.00;-15917.19;5017761;28;51258;-59
2023/02/12 02:44:46;;;;;;;;;2.50;2.25;;;;;-147.17;100.00;-15917.19;5017616;28;51003;-58
2023/02/12 02:47:13;;;;;;;;;3.00;2.00;;;;;-147.17;100.00;-15917.19;5003428;28;51369;-59
2023/02/12 02:49:49;;;;;;;;;2.00;1.50;;;;;-147.17;100.00;-15917.19;5005563;28;53023;-60
2023/02/12 02:52:24;;;;;;;;;2.00;2.00;;;;;-147.17;100.00;-15917.19;5020466;28;50837;-59
2023/02/12 02:54:55;;;;;;;;;2.50;2.50;;;;;-147.17;100.00;-15917.19;5011862;28;51098;-60
2023/02/12 02:57:28;;;;;;;;;4.00;4.00;;;;;-147.17;100.00;-15917.19;5016982;28;51173;-58
2023/02/12 03:00:15;;;;;;;;;2.00;2.00;;;;;-147.17;100.00;-15917.19;5019364;28;52114;-59
2023/02/12 03:02:49;;;;;;;;;2.75;2.00;;;;;-147.17;100.00;-15917.19;5022083;28;51211;-58
2023/02/12 03:05:39;;;;;;;;;2.50;2.00;;;;;-147.17;100.00;-15917.19;5021193;28;51172;-58
2023/02/12 03:08:13;;;;;;;;;1.25;1.25;;;;;-147.17;100.00;-15917.19;5017109;28;51212;-58
2023/02/12 03:10:44;;;;;;;;;3.50;3.00;;;;;-147.17;100.00;-15917.19;5022816;28;52033;-58
2023/02/12 03:13:35;;;;;;;;;3.00;2.00;;;;;-147.17;100.00;-15917.19;5012807;28;51318;-59
2023/02/12 03:16:30;;;;;;;;;3.00;3.00;;;;;-147.17;100.00;-15917.19;4989248;28;51189;-58
2023/02/12 03:19:03;;;;;;;;;1.00;1.00;;;;;-147.17;100.00;-15917.19;5020198;28;51169;-59
2023/02/12 03:21:39;;;;;;;;;3.25;3.00;;;;;-147.17;100.00;-15917.19;5022404;28;52119;-58
2023/02/12 03:24:50;;;;;;;;;1.00;1.00;;;;;-147.17;100.00;-15917.19;5019985;28;51009;-58
2023/02/12 03:27:22;;;;;;;;;2.00;2.00;;;;;-147.17;100.00;-15917.19;5010414;28;51248;-58
2023/02/12 03:29:47;;;;;;;;;2.00;2.00;;;;;-147.17;100.00;-15917.19;5017068;28;51162;-57
2023/02/12 03:32:30;;;;;;;;;4.00;3.25;;;;;-147.17;100.00;-15917.19;5022587;28;51982;-58
2023/02/12 03:35:24;;;;;;;;;4.00;4.00;;;;;-147.17;100.00;-15917.19;5019674;28;51244;-58
2023/02/12 03:38:03;;;;;;;;;3.75;3.00;;;;;-147.17;100.00;-15917.19;5013196;28;50916;-59
2023/02/12 03:41:01;;;;;;;;;2.25;2.25;;;;;-147.17;100.00;-15917.19;5016691;28;51126;-59
2023/02/12 03:43:32;;;;;;;;;5.75;4.00;;;;;-147.17;100.00;-15917.19;4981076;28;52072;-58
2023/02/12 03:46:00;;;;;;;;;3.25;3.25;;;;;-147.17;100.00;-15917.19;5022068;28;51165;-59
2023/02/12 03:48:45;;;;;;;;;6.75;6.00;;;;;-147.17;100.00;-15917.19;5027479;28;51350;-59
2023/02/12 03:51:22;;;;;;;;;6.75;6.75;;;;;-147.17;100.00;-15917.19;5023421;28;51209;-58
2023/02/12 03:53:51;;;;;;;;;9.50;4.50;;;;;-147.17;100.00;-15917.19;5012587;28;51833;-58
2023/02/12 03:56:26;;;;;;;;;8.50;8.50;;;;;-147.17;100.00;-15917.19;4998412;28;51215;-59
2023/02/12 03:58:52;;;;;;;;;7.25;7.00;;;;;-147.17;100.00;-15917.19;5024500;28;51235;-58
2023/02/12 04:01:17;;;;;;;;;7.50;7.00;;;;;-147.17;100.00;-15917.19;5022157;28;51216;-58
2023/02/12 04:03:43;;;;;;;;;8.00;7.00;;;;;-147.17;100.00;-15917.19;5024153;28;52291;-59
2023/02/12 04:06:24;;;;;;;;;5.00;4.00;;;;;-147.17;100.00;-15917.19;5015092;28;51037;-58
2023/02/12 04:08:50;;;;;;;;;10.50;8.75;;;;;-147.17;100.00;-15917.19;5018469;28;51084;-59
2023/02/12 04:11:29;;;;;;;;;10.25;8.25;;;;;-147.17;100.00;-15917.19;5028793;28;51011;-58
2023/02/12 04:14:21;;;;;;;;;8.75;8.00;;;;;-147.17;100.00;-15917.19;5005957;28;51871;-58
2023/02/12 04:16:52;;;;;;;;;10.00;8.00;;;;;-147.17;100.00;-15917.19;5016131;28;51092;-58
2023/02/12 04:19:32;;;;;;;;;8.75;7.00;;;;;-147.17;100.00;-15917.19;5017947;28;51132;-57
2023/02/12 04:22:16;;;;;;;;;9.25;7.50;;;;;-147.17;100.00;-15917.19;5029050;28;51101;-58
2023/02/12 04:25:02;;;;;;;;;12.25;10.50;;;;;-147.17;100.00;-15917.19;5020779;28;51263;-59
2023/02/12 04:27:54;;;;;;;;;10.25;9.00;;;;;-147.17;100.00;-15917.19;5020508;28;51156;-58
2023/02/12 04:30:34;;;;;;;;;12.50;10.00;;;;;-147.17;100.00;-15917.19;5017986;28;52478;-59
2023/02/12 04:33:03;;;;;;;;;10.00;8.50;;;;;-147.17;100.00;-15917.19;5019892;28;51043;-58
2023/02/12 04:35:34;;;;;;;;;11.50;10.25;;;;;-147.17;100.00;-15917.19;5020543;28;51972;-58
2023/02/12 04:38:07;;;;;;;;;15.50;11.25;;;;;-147.17;100.00;-15917.19;5029138;28;51104;-58
2023/02/12 04:40:33;;;;;;;;;9.25;8.00;;;;;-147.17;100.00;-15917.19;5023310;28;51205;-58
2023/02/12 04:42:59;;;;;;;;;10.25;9.00;;;;;-147.17;100.00;-15917.19;5026042;28;51097;-58
2023/02/12 04:45:28;;;;;;;;;15.00;13.25;;;;;-147.17;100.00;-15917.19;5019495;28;51196;-58
2023/02/12 04:47:54;;;;;;;;;10.50;10.25;;;;;-147.17;100.00;-15917.19;5024953;28;50941;-58
2023/02/12 04:50:20;;;;;;;;;7.25;7.00;;;;;-147.17;100.00;-15917.19;5022946;28;51214;-58
2023/02/12 04:52:45;;;;;;;;;10.75;9.00;;;;;-147.17;100.00;-15917.19;4995269;28;50918;-59
2023/02/12 04:55:11;;;;;;;;;11.50;11.00;;;;;-147.17;100.00;-15917.19;5025436;28;51079;-58
2023/02/12 04:57:37;;;;;;;;;13.00;11.75;;;;;-147.17;100.00;-15917.19;5023980;28;51176;-58
2023/02/12 05:00:04;;;;;;;;;12.50;10.25;;;;;-147.17;100.00;-15917.19;5029964;28;51169;-58
2023/02/12 05:02:31;;;;;;;;;13.25;9.25;;;;;-147.17;100.00;-15917.19;5018660;28;51047;-58
2023/02/12 05:04:57;;;;;;;;;11.50;9.00;;;;;-147.17;100.00;-15917.19;5017695;28;51326;-58
2023/02/12 05:07:22;;;;;;;;;11.50;9.00;;;;;-147.17;100.00;-15917.19;5010354;28;51279;-59
2023/02/12 05:09:47;;;;;;;;;10.25;9.00;;;;;-147.17;100.00;-15917.19;5018760;28;51133;-59
2023/02/12 05:12:13;;;;;;;;;8.00;6.25;;;;;-147.17;100.00;-15917.19;5021922;28;50950;-58
2023/02/12 05:14:38;;;;;;;;;11.75;10.00;;;;;-147.17;100.00;-15917.19;5020037;28;51253;-59
2023/02/12 05:17:03;;;;;;;;;10.00;7.75;;;;;-147.17;100.00;-15917.19;5026343;28;50918;-58
2023/02/12 05:19:29;;;;;;;;;9.00;7.00;;;;;-147.17;100.00;-15917.19;5024111;28;51624;-58
2023/02/12 05:21:54;;;;;;;;;9.75;8.50;;;;;-147.17;100.00;-15917.19;5021146;28;51137;-58
2023/02/12 05:24:19;;;;;;;;;9.75;8.75;;;;;-147.17;100.00;-15917.19;5020221;28;52198;-58
2023/02/12 05:26:45;;;;;;;;;8.75;8.50;;;;;-147.17;100.00;-15917.19;5022570;28;52761;-59
2023/02/12 05:29:10;;;;;;;;;6.00;5.50;;;;;-147.17;100.00;-15917.19;5005314;28;51683;-58
2023/02/12 05:31:35;;;;;;;;;5.50;5.50;;;;;-147.17;100.00;-15917.19;5014395;28;51116;-59
2023/02/12 05:34:01;;;;;;;;;7.50;6.00;;;;;-147.17;100.00;-15917.19;5032732;28;51212;-58
2023/02/12 05:36:26;;;;;;;;;7.75;7.00;;;;;-147.17;100.00;-15917.19;5012069;28;52392;-58
2023/02/12 05:38:56;;;;;;;;;8.50;7.25;;;;;-147.17;100.00;-15917.19;5020526;28;51490;-60
2023/02/12 05:41:23;;;;;;;;;8.00;6.75;;;;;-147.17;100.00;-15917.19;5025794;28;51331;-59
2023/02/12 05:43:49;;;;;;;;;6.50;6.00;;;;;-147.17;100.00;-15917.19;5015722;28;51088;-59
2023/02/12 05:46:15;;;;;;;;;4.75;4.75;;;;;-147.17;100.00;-15917.19;5024117;28;51197;-58
2023/02/12 05:48:41;;;;;;;;;5.75;4.75;;;;;-147.17;100.00;-15917.19;5023330;28;52248;-59
2023/02/12 05:51:09;;;;;;;;;6.50;6.50;;;;;-147.17;100.00;-15917.19;5020799;28;51062;-58
2023/02/12 05:53:36;;;;;;;;;5.75;5.75;;;;;-147.17;100.00;-15917.19;5021577;28;51284;-58
2023/02/12 05:56:14;;;;;;;;;6.50;6.00;;;;;-147.17;100.00;-15917.19;5024683;28;51231;-61
2023/02/12 05:58:42;;;;;;;;;6.75;6.00;;;;;-147.17;100.00;-15917.19;5022508;28;51094;-59
2023/02/12 06:01:21;;;;;;;;;6.00;4.00;;;;;-147.17;100.00;-15917.19;5004411;28;51440;-60
2023/02/12 06:03:47;;;;;;;;;6.75;6.00;;;;;-147.17;100.00;-15917.19;5025025;28;51115;-58
2023/02/12 06:06:12;;;;;;;;;9.25;7.75;;;;;-147.17;100.00;-15917.19;5016582;28;51345;-58
2023/02/12 06:08:38;;;;;;;;;7.00;7.00;;;;;-147.17;100.00;-15917.19;5013664;28;50979;-58
2023/02/12 06:11:07;;;;;;;;;7.00;6.00;;;;;-147.17;100.00;-15917.19;5018990;28;51352;-59
2023/02/12 06:13:32;;;;;;;;;8.50;7.75;;;;;-147.17;100.00;-15917.19;5016522;28;51349;-60
2023/02/12 06:15:58;;;;;;;;;12.75;11.50;;;;;-147.17;100.00;-15917.19;5027251;28;51220;-59
2023/02/12 06:18:25;;;;;;;;;8.50;7.75;;;;;-147.17;100.00;-15917.19;5016548;28;51112;-60
2023/02/12 06:20:53;;;;;;;;;7.50;6.75;;;;;-147.17;100.00;-15917.19;5023411;28;51170;-59
2023/02/12 06:23:20;;;;;;;;;13.00;12.00;;;;;-147.17;100.00;-15917.19;5025892;28;50911;-59
2023/02/12 06:25:45;;;;;;;;;7.25;6.00;;;;;-147.17;100.00;-15917.19;5025248;28;51053;-59
2023/02/12 06:28:10;;;;;;;;;6.75;6.75;;;;;-147.17;100.00;-15917.19;5028760;28;51527;-59
2023/02/12 06:30:36;;;;;;;;;9.50;9.00;;;;;-147.17;100.00;-15917.19;5024419;28;51017;-59
2023/02/12 06:33:01;;;;;;;;;10.50;8.50;;;;;-147.17;100.00;-15917.19;5023078;28;51058;-58
2023/02/12 06:35:27;;;;;;;;;7.50;6.75;;;;;-147.17;100.00;-15917.19;5014583;28;50978;-58
2023/02/12 06:37:52;;;;;;;;;13.75;12.25;;;;;-147.17;100.00;-15917.19;5024011;28;51423;-59
2023/02/12 06:40:18;;;;;;;;;12.00;12.00;;;;;-147.17;100.00;-15917.19;5017121;28;51034;-58
2023/02/12 06:42:44;;;;;;;;;7.25;7.00;;;;;-147.17;100.00;-15917.19;5019277;28;51563;-59
2023/02/12 06:45:09;;;;;;;;;9.25;9.25;;;;;-147.17;100.00;-15917.19;5013995;28;51023;-59
2023/02/12 06:47:34;;;;;;;;;7.50;7.50;;;;;-147.17;100.00;-15917.19;5023782;28;51174;-59
2023/02/12 06:50:00;;;;;;;;;8.25;8.00;;;;;-147.17;100.00;-15917.19;5017710;28;51328;-58
2023/02/12 06:52:26;;;;;;;;;4.50;3.50;;;;;-147.17;100.00;-15917.19;5012471;28;52233;-58
2023/02/12 06:54:51;;;;;;;;;10.00;9.50;;;;;-147.17;100.00;-15917.19;5026139;28;51025;-58
2023/02/12 06:57:17;;;;;;;;;5.50;5.50;;;;;-147.17;100.00;-15917.19;5008456;28;51990;-58
2023/02/12 06:59:42;;;;;;;;;13.25;10.00;;;;;-147.17;100.00;-15917.19;5024989;28;51194;-59
2023/02/12 07:02:10;;;;;;;;;9.50;9.50;;;;;-147.17;100.00;-15917.19;5016060;28;51200;-58
2023/02/12 07:04:37;;;;;;;;;7.50;6.50;;;;;-147.17;100.00;-15917.19;5017292;28;51178;-58
2023/02/12 07:07:04;;;;;;;;;9.25;8.50;;;;;-147.17;100.00;-15917.19;5023980;28;51145;-59
2023/02/12 07:09:29;;;;;;;;;11.00;9.00;;;;;-147.17;100.00;-15917.19;5019113;28;51309;-59
2023/02/12 07:11:57;;;;;;;;;10.75;9.00;;;;;-147.17;100.00;-15917.19;5023597;28;51987;-59
2023/02/12 07:14:22;;;;;;;;;10.25;8.00;;;;;-147.17;100.00;-15917.19;5019238;28;51312;-59
2023/02/12 07:16:47;;;;;;;;;6.00;5.50;;;;;-147.17;100.00;-15917.19;5026604;28;50967;-59
2023/02/12 07:19:15;;;;;;;;;9.00;8.00;;;;;-147.17;100.00;-15917.19;5012820;28;51343;-58
2023/02/12 07:21:41;;;;;;;;;10.00;8.75;;;;;-147.17;100.00;-15917.19;5014889;28;52714;-58
2023/02/12 07:24:10;;;;;;;;;6.75;6.75;;;;;-147.17;100.00;-15917.19;5023969;28;51482;-59
2023/02/12 07:26:36;;;;;;;;;8.00;8.00;;;;;-147.17;100.00;-15917.19;5028036;28;51166;-59
2023/02/12 07:29:01;;;;;;;;;8.00;7.25;;;;;-147.17;100.00;-15917.19;5016394;28;51317;-59
2023/02/12 07:31:27;;;;;;;;;6.00;4.00;;;;;-147.17;100.00;-15917.19;5014639;28;52283;-59
2023/02/12 07:33:54;;;;;;;;;11.25;9.50;;;;;-147.17;100.00;-15917.19;4998383;28;51134;-59
2023/02/12 07:36:20;;;;;;;;;11.25;8.75;;;;;-147.17;100.00;-15917.19;5023818;28;51216;-58
2023/02/12 07:38:46;;;;;;;;;8.00;7.00;;;;;-147.17;100.00;-15917.19;5016736;28;51238;-58
2023/02/12 07:41:18;;;;;;;;;11.50;9.50;;;;;-147.17;100.00;-15917.19;5014347;28;52147;-58
2023/02/12 07:43:45;;;;;;;;;8.00;7.00;;;;;-147.17;100.00;-15917.19;4996895;28;51195;-59
2023/02/12 07:46:17;;;;;;;;;6.00;5.50;;;;;-147.17;100.00;-15917.19;5019682;28;51125;-59
2023/02/12 07:48:43;;;;;;;;;7.75;7.75;;;;;-147.17;100.00;-15917.19;5016582;28;51057;-59
2023/02/12 07:51:10;;;;;;;;;10.50;10.50;;;;;-147.17;100.00;-15917.19;5010972;28;52809;-59
2023/02/12 07:53:37;;;;;;;;;7.00;6.75;;;;;-147.17;100.00;-15917.19;5003277;28;50901;-58
2023/02/12 07:56:21;;;;;;;;;13.00;11.75;;;;;-147.17;100.00;-15917.19;5018918;28;51074;-58
2023/02/12 07:58:48;;;;;;;;;13.00;12.50;;;;;-147.17;100.00;-15917.19;5019125;28;51121;-59
2023/02/12 08:01:25;;;;;;;;;12.50;11.50;;;;;-147.17;100.00;-15917.19;5012199;28;51179;-58
2023/02/12 08:03:50;;;;;;;;;8.00;7.25;;;;;-147.17;100.00;-15917.19;5023034;28;51248;-59
2023/02/12 08:06:22;;;;;;;;;10.50;8.75;;;;;-147.17;100.00;-15917.19;5030259;28;51271;-57
2023/02/12 08:08:49;;;;;;;;;10.00;8.50;;;;;-147.17;100.00;-15917.19;5025570;28;51250;-57
2023/02/12 08:11:16;;;;;;;;;8.50;7.50;;;;;-147.17;100.00;-15917.19;5021730;28;51164;-59
2023/02/12 08:13:42;;;;;;;;;9.50;8.25;;;;;-147.17;100.00;-15917.19;5013037;28;51118;-58
2023/02/12 08:16:16;;;;;;;;;9.25;9.00;;;;;-147.17;100.00;-15917.19;5015425;28;51149;-59
2023/02/12 08:18:42;;;;;;;;;8.75;8.25;;;;;-147.17;100.00;-15917.19;4997021;28;51923;-59
2023/02/12 08:21:14;;;;;;;;;12.00;9.50;;;;;-147.17;100.00;-15917.19;5027503;28;52282;-58
2023/02/12 08:23:40;;;;;;;;;8.25;8.00;;;;;-147.17;100.00;-15917.19;5024135;28;51159;-59
2023/02/12 08:26:17;;;;;;;;;7.75;6.75;;;;;-147.17;100.00;-15917.19;5017184;28;51222;-59
2023/02/12 08:28:46;;;;;;;;;12.00;12.00;;;;;-147.17;100.00;-15917.19;5020602;28;51181;-59
2023/02/12 08:31:14;;;;;;;;;6.75;5.75;;;;;-147.17;100.00;-15917.19;5027123;28;51362;-60
2023/02/12 08:33:40;;;;;;;;;12.00;8.00;;;;;-147.17;100.00;-15917.19;5020371;28;51128;-58
2023/02/12 08:36:11;;;;;;;;;6.00;4.00;;;;;-147.17;100.00;-15917.19;5017306;28;51141;-59
2023/02/12 08:38:38;;;;;;;;;6.25;6.25;;;;;-147.17;100.00;-15917.19;5020476;28;51248;-59
2023/02/12 08:41:06;;;;;;;;;7.00;7.00;;;;;-147.17;100.00;-15917.19;5019130;28;51055;-58
2023/02/12 08:43:32;;;;;;;;;7.00;6.75;;;;;-147.17;100.00;-15917.19;5012503;28;51301;-59
2023/02/12 08:46:05;;;;;;;;;9.00;7.00;;;;;-147.17;100.00;-15917.19;5014860;28;51417;-58
2023/02/12 08:48:31;;;;;;;;;8.00;7.00;;;;;-147.17;100.00;-15917.19;5012189;28;51145;-58
2023/02/12 08:51:16;;;;;;;;;6.00;6.00;;;;;-147.17;100.00;-15917.19;5024561;28;51839;-58
2023/02/12 08:53:43;;;;;;;;;6.25;6.25;;;;;-147.17;100.00;-15917.19;5022718;28;51302;-58
2023/02/12 08:56:11;;;;;;;;;6.00;6.00;;;;;-147.17;100.00;-15917.19;5023284;28;51146;-58
2023/02/12 08:58:38;;;;;;;;;6.25;6.00;;;;;-147.17;100.00;-15917.19;5025146;28;51109;-59
2023/02/12 09:01:07;;;;;;;;;4.00;3.00;;;;;-147.17;100.00;-15917.19;5024210;28;51169;-59
2023/02/12 09:03:33;;;;;;;;;3.75;3.00;;;;;-147.17;100.00;-15917.19;5020051;28;51022;-57
2023/02/12 09:06:01;;;;;;;;;4.00;3.50;;;;;-147.17;100.00;-15917.19;5027447;28;51720;-60
2023/02/12 09:08:27;;;;;;;;;5.75;4.50;;;;;-147.17;100.00;-15917.19;5023261;28;51339;-59
2023/02/12 09:10:52;;;;;;;;;3.75;3.50;;;;;-147.17;100.00;-15917.19;5028957;28;52123;-59
2023/02/12 09:13:18;;;;;;;;;3.25;3.25;;;;;-147.17;100.00;-15917.19;5024255;28;51244;-57
2023/02/12 09:15:44;;;;;;;;;2.75;2.75;;;;;-147.17;100.00;-15917.19;5014042;28;51092;-58
2023/02/12 09:18:11;;;;;;;;;3.00;2.00;;;;;-147.17;100.00;-15917.19;5016969;28;51356;-59
2023/02/12 09:20:40;;;;;;;;;6.75;4.00;;;;;-147.17;100.00;-15917.19;5017543;28;51794;-59
2023/02/12 09:23:07;;;;;;;;;4.00;2.75;;;;;-147.17;100.00;-15917.19;5017903;28;51294;-59
2023/02/12 09:25:34;;;;;;;;;3.25;2.75;;;;;-147.17;100.00;-15917.19;5019907;28;51511;-58
2023/02/12 09:28:00;;;;;;;;;3.50;3.50;;;;;-147.17;100.00;-15917.19;5025735;28;52058;-58
2023/02/12 09:30:26;;;;;;;;;3.00;2.50;;;;;-147.17;100.00;-15917.19;5026901;28;51472;-58
2023/02/12 09:32:51;;;;;;;;;3.00;2.75;;;;;-147.17;100.00;-15917.19;5021338;28;51070;-60
2023/02/12 09:35:17;;;;;;;;;3.75;3.00;;;;;-147.17;100.00;-15917.19;5026071;28;51471;-59
2023/02/12 09:37:44;;;;;;;;;5.75;4.00;;;;;-147.17;100.00;-15917.19;5025099;28;51162;-57
2023/02/12 09:40:30;;;;;;;;;3.00;3.00;;;;;-147.17;100.00;-15917.19;5015312;28;53615;-60
2023/02/12 09:43:05;;;;;;;;;6.50;5.00;;;;;-147.17;100.00;-15917.19;5018553;28;51244;-59
2023/02/12 09:45:40;;;;;;;;;7.75;7.00;;;;;-147.17;100.00;-15917.19;5015695;28;50972;-59
2023/02/12 09:48:32;;;;;;;;;4.25;4.00;;;;;-147.17;100.00;-15917.19;5022103;28;51053;-59
2023/02/12 09:51:02;;;;;;;;;2.50;2.50;;;;;-147.17;100.00;-15917.19;5013416;28;51389;-58
2023/02/12 09:53:30;;;;;;;;;6.75;6.00;;;;;-147.17;100.00;-15917.19;5012089;28;51171;-59
2023/02/12 09:55:55;;;;;;;;;6.00;6.00;;;;;-147.17;100.00;-15917.19;5004033;28;51255;-60
2023/02/12 09:58:31;;;;;;;;;6.50;6.00;;;;;-147.17;100.00;-15917.19;5019626;28;51004;-58
2023/02/12 10:00:57;;;;;;;;;3.50;2.00;;;;;-147.17;100.00;-15917.19;5016203;28;52194;-59
2023/02/12 10:03:24;;;;;;;;;4.75;4.75;;;;;-147.17;100.00;-15917.19;5013862;28;51022;-59
2023/02/12 10:05:56;;;;;;;;;7.00;6.00;;;;;-147.17;100.00;-15917.19;5011710;28;50989;-60
2023/02/12 10:08:38;;;;;;;;;7.00;5.25;;;;;-147.17;100.00;-15917.19;5018467;28;51172;-59
2023/02/12 10:11:24;;;;;;;;;3.75;3.25;;;;;-147.17;100.00;-15917.19;5024566;28;52190;-58
2023/02/12 10:14:28;;;;;;;;;8.00;7.00;;;;;-147.17;100.00;-15917.19;5014862;28;51722;-59
2023/02/12 10:17:30;;;;;;;;;3.75;3.75;;;;;-147.17;100.00;-15917.19;5025030;28;51094;-59
2023/02/12 10:20:15;;;;;;;;;4.00;4.00;;;;;-147.17;100.00;-15917.19;5013373;28;51103;-58
2023/02/12 10:22:46;;;;;;;;;5.25;5.25;;;;;-147.17;100.00;-15917.19;5015133;28;52733;-59
2023/02/12 10:25:37;;;;;;;;;1.50;1.50;;;;;-147.17;100.00;-15917.19;5006370;28;51206;-60
2023/02/12 10:28:20;;;;;;;;;4.25;4.25;;;;;-147.17;100.00;-15917.19;5014170;28;51355;-58
2023/02/12 10:31:02;;;;;;;;;4.00;3.00;;;;;-147.17;100.00;-15917.19;5015687;28;51153;-58
2023/02/12 10:33:42;;;;;;;;;7.00;6.50;;;;;-147.17;100.00;-15917.19;5001857;28;52078;-60
2023/02/12 10:36:42;;;;;;;;;7.75;7.75;;;;;-147.17;100.00;-15917.19;5014540;28;51268;-58
2023/02/12 10:39:25;;;;;;;;;3.50;3.50;;;;;-147.17;100.00;-15917.19;5028670;28;51301;-59
2023/02/12 10:42:17;;;;;;;;;3.00;3.00;;;;;-147.17;100.00;-15917.19;5011698;28;51285;-60
2023/02/12 10:44:43;;;;;;;;;4.00;3.75;;;;;-147.17;100.00;-15917.19;5011164;28;52355;-60
2023/02/12 10:47:22;;;;;;;;;6.50;5.00;;;;;-147.17;100.00;-15917.19;5011435;28;51208;-59
2023/02/12 10:49:56;;;;;;;;;5.50;5.50;;;;;-147.17;100.00;-15917.19;5021159;28;51051;-58
2023/02/12 10:52:42;;;;;;;;;7.00;7.00;;;;;-147.17;100.00;-15917.19;5020090;28;51031;-59
2023/02/12 10:55:34;;;;;;;;;10.75;10.25;;;;;-147.17;100.00;-15917.19;5015312;28;51190;-60
2023/02/12 10:58:02;;;;;;;;;6.50;5.00;;;;;-147.17;100.00;-15917.19;5019550;28;51144;-59
2023/02/12 11:00:33;;;;;;;;;4.00;4.00;;;;;-147.17;100.00;-15917.19;5026365;28;51157;-60
2023/02/12 11:03:21;;;;;;;;;11.25;11.00;;;;;-147.17;100.00;-15917.19;4995135;28;50992;-58
2023/02/12 11:05:47;;;;;;;;;6.00;5.00;;;;;-147.17;100.00;-15917.19;5011713;28;51256;-58
2023/02/12 11:08:26;;;;;;;;;8.00;8.00;;;;;-147.17;100.00;-15917.19;5009821;28;51333;-59
2023/02/12 11:10:52;;;;;;;;;8.50;8.00;;;;;-147.17;100.00;-15917.19;5020846;28;51337;-59
2023/02/12 11:13:26;;;;;;;;;5.50;5.00;;;;;-147.17;100.00;-15917.19;5018630;28;51403;-60
2023/02/12 11:15:53;;;;;;;;;6.25;4.75;;;;;-147.17;100.00;-15917.19;5020302;28;51852;-61
2023/02/12 11:18:25;;;;;;;;;8.25;7.75;;;;;-147.17;100.00;-15917.19;5017170;28;51267;-58